createdAt,value
2022-11-28T00:00:32.986Z,87.12
2022-11-28T00:03:35.965Z,87.45
2022-11-28T00:06:47.032Z,87.30
2022-11-28T00:09:50.361Z,86.65
2022-11-28T00:12:53.405Z,86.78
2022-11-28T00:16:00.246Z,86.05
2022-11-28T00:19:03.588Z,85.93
2022-11-28T00:22:06.154Z,85.98
2022-11-28T00:25:08.796Z,86.30
2022-11-28T00:28:11.269Z,85.69
2022-11-28T00:31:20.778Z,84.96
2022-11-28T00:34:24.367Z,85.65
2022-11-28T00:37:27.937Z,85.69
2022-11-28T00:40:30.569Z,85.54
2022-11-28T00:43:34.371Z,85.25
2022-11-28T00:46:37.027Z,85.08
2022-11-28T00:49:39.571Z,85.20
2022-11-28T00:52:42.097Z,85.67
2022-11-28T00:55:44.594Z,85.79
2022-11-28T00:58:49.723Z,85.55
2022-11-28T01:01:53.416Z,85.37
2022-11-28T01:04:56.989Z,84.94
2022-11-28T01:07:59.602Z,84.84
2022-11-28T01:11:02.571Z,85.00
2022-11-28T01:14:06.041Z,85.00
2022-11-28T01:17:09.465Z,84.68
2022-11-28T01:20:12.499Z,84.83
2022-11-28T01:23:18.549Z,84.68
2022-11-28T01:26:27.637Z,84.75
2022-11-28T01:29:30.109Z,84.76
2022-11-28T01:32:32.641Z,84.74
2022-11-28T01:35:35.981Z,84.83
2022-11-28T01:38:40.001Z,84.75
2022-11-28T01:41:42.866Z,84.53
2022-11-28T01:44:48.409Z,84.78
2022-11-28T01:47:53.872Z,84.89
2022-11-28T01:51:01.023Z,84.73
2022-11-28T01:54:04.621Z,85.47
2022-11-28T01:57:12.774Z,85.42
2022-11-28T02:00:20.971Z,85.67
2022-11-28T02:03:30.260Z,85.58
2022-11-28T02:06:33.819Z,84.41
2022-11-28T02:09:37.120Z,84.75
2022-11-28T02:12:48.302Z,85.00
2022-11-28T02:16:05.561Z,84.95
2022-11-28T02:19:17.725Z,84.75
2022-11-28T02:22:59.334Z,85.00
2022-11-28T02:26:40.042Z,84.17
2022-11-28T02:29:59.342Z,84.04
2022-11-28T02:33:14.248Z,84.25
2022-11-28T02:36:59.644Z,84.46
2022-11-28T02:40:42.867Z,84.17
2022-11-28T02:43:59.288Z,83.93
2022-11-28T02:47:18.944Z,83.70
2022-11-28T02:50:28.643Z,84.20
2022-11-28T02:53:34.166Z,84.14
2022-11-28T02:56:36.954Z,84.14
2022-11-28T02:59:43.045Z,83.67
2022-11-28T03:03:00.452Z,84.00
2022-11-28T03:06:21.710Z,83.16
2022-11-28T03:09:45.405Z,83.80
2022-11-28T03:12:57.310Z,83.50
2022-11-28T03:16:19.379Z,83.37
2022-11-28T03:19:30.931Z,82.56
2022-11-28T03:22:40.686Z,81.79
2022-11-28T03:26:04.076Z,82.77
2022-11-28T03:29:16.457Z,82.64
2022-11-28T03:32:26.795Z,82.89
2022-11-28T03:35:34.571Z,82.65
2022-11-28T03:38:42.785Z,83.04
2022-11-28T03:41:55.221Z,82.83
2022-11-28T03:45:24.115Z,82.88
2022-11-28T03:48:31.959Z,83.36
2022-11-28T03:51:46.794Z,82.65
2022-11-28T03:54:55.589Z,83.38
2022-11-28T03:58:07.368Z,82.93
2022-11-28T04:01:32.137Z,83.21
2022-11-28T04:04:38.264Z,83.59
2022-11-28T04:07:50.486Z,83.24
2022-11-28T04:10:58.654Z,83.05
2022-11-28T04:14:25.283Z,83.14
2022-11-28T04:17:39.945Z,83.46
2022-11-28T04:21:04.929Z,83.43
2022-11-28T04:24:14.939Z,83.10
2022-11-28T04:27:23.465Z,82.76
2022-11-28T04:30:27.779Z,82.98
2022-11-28T04:33:36.527Z,82.75
2022-11-28T04:36:43.465Z,82.81
2022-11-28T04:39:49.168Z,82.92
2022-11-28T04:43:01.292Z,82.95
2022-11-28T04:46:25.231Z,82.79
2022-11-28T04:49:29.578Z,82.34
2022-11-28T04:52:53.138Z,82.94
2022-11-28T04:56:02.506Z,83.35
2022-11-28T04:59:07.637Z,83.49
2022-11-28T05:02:13.523Z,83.70
2022-11-28T05:05:23.504Z,83.95
2022-11-28T05:08:26.716Z,84.51
2022-11-28T05:11:29.456Z,84.32
2022-11-28T05:14:32.915Z,84.88
2022-11-28T05:17:41.716Z,84.90
2022-11-28T05:20:44.866Z,84.56
2022-11-28T05:23:47.340Z,84.42
2022-11-28T05:26:50.125Z,84.68
2022-11-28T05:29:53.915Z,85.05
2022-11-28T05:32:58.768Z,85.02
2022-11-28T05:36:13.139Z,85.25
2022-11-28T05:39:16.280Z,85.03
2022-11-28T05:42:20.119Z,85.01
2022-11-28T05:45:22.820Z,84.66
2022-11-28T05:48:25.602Z,84.43
2022-11-28T05:51:28.955Z,84.22
2022-11-28T05:54:32.189Z,84.48
2022-11-28T05:57:37.842Z,84.33
2022-11-28T06:00:40.552Z,84.48
2022-11-28T06:03:43.874Z,83.88
2022-11-28T06:06:46.490Z,83.88
2022-11-28T06:09:50.018Z,84.04
2022-11-28T06:12:53.251Z,84.06
2022-11-28T06:15:56.268Z,83.98
2022-11-28T06:19:04.286Z,83.80
2022-11-28T06:22:07.345Z,83.69
2022-11-28T06:25:10.378Z,83.88
2022-11-28T06:28:12.824Z,83.97
2022-11-28T06:31:23.121Z,83.66
2022-11-28T06:34:27.164Z,83.62
2022-11-28T06:37:30.661Z,83.68
2022-11-28T06:40:34.642Z,82.95
2022-11-28T06:43:38.488Z,82.70
2022-11-28T06:46:43.945Z,82.24
2022-11-28T06:49:49.482Z,82.09
2022-11-28T06:52:55.040Z,81.76
2022-11-28T06:56:01.669Z,81.47
2022-11-28T06:59:04.577Z,81.13
2022-11-28T07:02:09.493Z,81.54
2022-11-28T07:05:15.243Z,81.84
2022-11-28T07:08:21.696Z,82.21
2022-11-28T07:11:28.149Z,82.06
2022-11-28T07:14:33.668Z,81.56
2022-11-28T07:17:40.033Z,82.18
2022-11-28T07:20:45.969Z,81.28
2022-11-28T07:23:49.560Z,81.21
2022-11-28T07:26:52.167Z,81.67
2022-11-28T07:29:54.899Z,80.74
2022-11-28T07:32:58.659Z,81.38
2022-11-28T07:36:07.473Z,81.17
2022-11-28T07:39:13.771Z,81.52
2022-11-28T07:42:17.063Z,81.51
2022-11-28T07:45:53.476Z,81.15
2022-11-28T07:48:54.270Z,80.09
2022-11-28T07:51:58.782Z,80.26
2022-11-28T07:55:01.973Z,79.53
2022-11-28T07:58:05.816Z,78.95
2022-11-28T08:01:14.231Z,79.35
2022-11-28T08:04:17.501Z,78.88
2022-11-28T08:07:20.543Z,78.38
2022-11-28T08:10:23.313Z,77.54
2022-11-28T08:13:28.102Z,76.91
2022-11-28T08:16:32.722Z,76.46
2022-11-28T08:19:35.829Z,76.46
2022-11-28T08:22:38.800Z,76.73
2022-11-28T08:25:41.683Z,75.56
2022-11-28T08:28:45.420Z,74.72
2022-11-28T08:31:49.027Z,74.71
2022-11-28T08:34:52.088Z,74.33
2022-11-28T08:38:00.390Z,73.96
2022-11-28T08:41:10.813Z,70.34
2022-11-28T08:44:18.310Z,69.47
2022-11-28T08:47:21.473Z,69.58
2022-11-28T08:50:27.430Z,68.78
2022-11-28T08:53:30.600Z,67.22
2022-11-28T08:56:36.619Z,66.62
2022-11-28T08:59:39.648Z,67.75
2022-11-28T09:02:42.665Z,68.06
2022-11-28T09:05:47.477Z,67.43
2022-11-28T09:08:53.634Z,67.33
2022-11-28T09:11:59.768Z,68.81
2022-11-28T09:15:06.130Z,70.29
2022-11-28T09:18:09.438Z,71.15
2022-11-28T09:21:15.023Z,71.23
2022-11-28T09:24:18.905Z,71.66
2022-11-28T09:27:21.494Z,71.19
2022-11-28T09:30:26.791Z,71.21
2022-11-28T09:33:30.651Z,69.39
2022-11-28T09:36:33.802Z,69.02
2022-11-28T09:39:50.605Z,69.02
2022-11-28T09:43:11.217Z,67.27
2022-11-28T09:46:24.902Z,68.46
2022-11-28T09:49:40.588Z,68.32
2022-11-28T09:52:53.706Z,69.14
2022-11-28T09:56:00.512Z,69.13
2022-11-28T09:59:23.525Z,69.04
2022-11-28T10:02:35.155Z,69.69
2022-11-28T10:05:52.293Z,70.48
2022-11-28T10:09:47.978Z,70.88
2022-11-28T10:13:14.616Z,70.97
2022-11-28T10:21:20.242Z,70.56
2022-11-28T10:24:37.998Z,70.70
2022-11-28T10:28:05.621Z,70.71
2022-11-28T10:31:35.667Z,70.02
2022-11-28T10:45:56.903Z,69.64
2022-11-28T10:49:49.323Z,70.23
2022-11-28T10:53:23.732Z,69.50
2022-11-28T10:57:38.719Z,70.23
2022-11-28T11:00:49.458Z,69.55
2022-11-28T11:03:56.795Z,69.65
2022-11-28T11:07:54.799Z,69.01
2022-11-28T11:11:45.769Z,69.70
2022-11-28T11:15:33.943Z,70.16
2022-11-28T11:19:00.692Z,69.72
2022-11-28T11:22:14.412Z,69.96
2022-11-28T11:25:46.732Z,70.31
2022-11-28T11:28:51.260Z,69.61
2022-11-28T11:32:04.124Z,68.82
2022-11-28T11:35:43.584Z,68.29
2022-11-28T11:43:38.022Z,67.07
2022-11-28T11:47:11.317Z,67.22
2022-11-28T11:50:35.693Z,67.62
2022-11-28T11:53:46.373Z,67.19
2022-11-28T11:57:32.398Z,67.41
2022-11-28T12:00:47.907Z,68.18
2022-11-28T12:04:37.209Z,68.47
2022-11-28T12:07:40.028Z,67.67
2022-11-28T12:11:22.241Z,66.58
2022-11-28T12:14:55.855Z,66.87
2022-11-28T12:18:35.394Z,67.62
2022-11-28T12:22:06.273Z,67.59
2022-11-28T12:25:23.311Z,67.49
2022-11-28T12:29:15.396Z,67.30
2022-11-28T12:32:28.658Z,67.86
2022-11-28T12:35:39.768Z,68.27
2022-11-28T12:39:14.854Z,67.71
2022-11-28T12:42:34.544Z,67.68
2022-11-28T12:46:03.166Z,67.83
2022-11-28T12:50:01.016Z,68.81
2022-11-28T12:53:35.026Z,69.10
2022-11-28T12:57:03.199Z,68.75
2022-11-28T13:00:30.044Z,70.54
2022-11-28T13:04:28.882Z,69.06
2022-11-28T13:08:12.744Z,68.79
2022-11-28T13:11:55.555Z,70.21
2022-11-28T13:15:18.158Z,70.40
2022-11-28T13:18:48.209Z,70.07
2022-11-28T13:22:03.333Z,69.61
2022-11-28T13:25:32.904Z,69.62
2022-11-28T13:29:14.882Z,69.09
2022-11-28T13:32:47.599Z,69.46
2022-11-28T13:40:24.261Z,69.64
2022-11-28T13:43:30.673Z,69.94
2022-11-28T13:46:35.159Z,70.00
2022-11-28T13:49:46.193Z,70.15
2022-11-28T13:57:45.928Z,70.30
2022-11-28T14:01:12.960Z,70.23
2022-11-28T14:05:27.148Z,71.73
2022-11-28T14:08:57.009Z,72.26
2022-11-28T14:12:08.115Z,72.94
2022-11-28T14:15:36.322Z,73.55
2022-11-28T14:19:15.696Z,73.30
2022-11-28T14:22:45.590Z,74.17
2022-11-28T14:25:52.578Z,74.04
2022-11-28T14:29:04.421Z,74.77
2022-11-28T14:32:39.951Z,74.34
2022-11-28T14:35:53.381Z,74.95
2022-11-28T14:39:20.239Z,74.85
2022-11-28T14:42:58.083Z,75.49
2022-11-28T14:45:50.611Z,75.11
2022-11-28T14:49:00.803Z,75.08
2022-11-28T14:52:39.563Z,74.69
2022-11-28T14:55:47.759Z,74.81
2022-11-28T14:59:28.850Z,75.06
2022-11-28T15:03:04.886Z,75.66
2022-11-28T15:06:23.172Z,76.51
2022-11-28T15:09:49.776Z,76.90
2022-11-28T15:13:19.260Z,76.95
2022-11-28T15:16:32.499Z,77.03
2022-11-28T15:19:46.110Z,76.52
2022-11-28T15:22:59.724Z,76.34
2022-11-28T15:26:42.954Z,76.60
2022-11-28T15:29:58.763Z,76.13
2022-11-28T15:33:06.085Z,76.65
2022-11-28T15:36:29.959Z,76.96
2022-11-28T15:39:44.824Z,77.17
2022-11-28T15:42:50.652Z,76.86
2022-11-28T15:46:01.645Z,77.17
2022-11-28T15:49:06.743Z,77.07
2022-11-28T15:52:20.307Z,77.46
2022-11-28T15:55:26.905Z,76.93
2022-11-28T15:58:38.298Z,77.14
2022-11-28T16:02:02.619Z,76.76
2022-11-28T16:05:30.513Z,77.58
2022-11-28T16:08:40.504Z,78.02
2022-11-28T16:12:02.634Z,78.58
2022-11-28T16:15:35.564Z,78.37
2022-11-28T16:19:03.554Z,79.25
2022-11-28T16:22:23.919Z,78.61
2022-11-28T16:25:45.340Z,78.83
2022-11-28T16:29:17.812Z,78.96
2022-11-28T16:32:38.612Z,78.56
2022-11-28T16:35:52.582Z,78.84
2022-11-28T16:39:13.662Z,79.01
2022-11-28T16:42:18.847Z,78.46
2022-11-28T16:45:32.787Z,77.99
2022-11-28T16:48:38.626Z,78.26
2022-11-28T16:52:09.220Z,77.88
2022-11-28T16:55:47.357Z,78.30
2022-11-28T16:59:27.543Z,78.81
2022-11-28T17:02:43.533Z,78.18
2022-11-28T17:06:06.267Z,78.50
2022-11-28T17:09:22.795Z,79.14
2022-11-28T17:12:46.367Z,78.99
2022-11-28T17:16:06.425Z,79.82
2022-11-28T17:19:16.332Z,80.59
2022-11-28T17:22:51.337Z,79.61
2022-11-28T17:26:07.357Z,80.54
2022-11-28T17:29:29.406Z,81.22
2022-11-28T17:32:37.000Z,80.73
2022-11-28T17:35:57.445Z,80.52
2022-11-28T17:39:17.385Z,80.11
2022-11-28T17:42:20.483Z,80.25
2022-11-28T17:45:31.264Z,80.83
2022-11-28T17:48:52.928Z,80.71
2022-11-28T17:52:16.144Z,79.95
2022-11-28T17:55:36.058Z,79.91
2022-11-28T17:58:56.157Z,81.05
2022-11-28T18:02:04.473Z,81.07
2022-11-28T18:05:20.111Z,80.53
2022-11-28T18:08:43.106Z,81.19
2022-11-28T18:11:47.037Z,81.31
2022-11-28T18:15:03.521Z,81.76
2022-11-28T18:18:19.422Z,82.13
2022-11-28T18:21:42.127Z,82.37
2022-11-28T18:25:00.427Z,82.00
2022-11-28T18:28:30.006Z,81.76
2022-11-28T18:31:53.635Z,81.86
2022-11-28T18:35:16.035Z,81.90
2022-11-28T18:38:39.993Z,81.45
2022-11-28T18:42:05.547Z,81.50
2022-11-28T18:45:22.483Z,81.89
2022-11-28T18:48:40.085Z,81.37
2022-11-28T18:52:02.445Z,82.36
2022-11-28T18:55:26.045Z,82.09
2022-11-28T18:58:49.483Z,82.65
2022-11-28T19:02:24.923Z,83.29
2022-11-28T19:05:39.455Z,82.58
2022-11-28T19:08:53.646Z,83.51
2022-11-28T19:11:56.642Z,83.62
2022-11-28T19:15:02.581Z,83.58
2022-11-28T19:18:09.521Z,82.62
2022-11-28T19:21:35.435Z,83.43
2022-11-28T19:24:52.132Z,83.28
2022-11-28T19:28:07.998Z,83.07
2022-11-28T19:31:34.150Z,82.61
2022-11-28T19:34:55.880Z,82.40
2022-11-28T19:38:15.881Z,82.04
2022-11-28T19:41:35.822Z,82.27
2022-11-28T19:44:55.998Z,82.29
2022-11-28T19:48:12.057Z,82.57
2022-11-28T19:51:20.818Z,82.52
2022-11-28T19:54:30.115Z,82.65
2022-11-28T19:57:51.691Z,81.46
2022-11-28T20:01:15.813Z,81.69
2022-11-28T20:04:27.933Z,81.35
2022-11-28T20:07:44.242Z,81.41
2022-11-28T20:11:20.593Z,80.59
2022-11-28T20:14:43.910Z,80.63
2022-11-28T20:18:08.578Z,80.81
2022-11-28T20:21:28.585Z,80.71
2022-11-28T20:24:51.747Z,80.37
2022-11-28T20:28:08.954Z,81.00
2022-11-28T20:31:40.709Z,80.90
2022-11-28T20:35:05.738Z,81.11
2022-11-28T20:38:20.912Z,81.25
2022-11-28T20:41:26.094Z,81.84
2022-11-28T20:44:30.004Z,80.91
2022-11-28T20:47:41.081Z,81.86
2022-11-28T20:50:52.075Z,81.81
2022-11-28T20:54:15.834Z,81.63
2022-11-28T20:57:51.587Z,81.62
2022-11-28T21:01:12.739Z,80.84
2022-11-28T21:04:33.186Z,80.89
2022-11-28T21:07:42.231Z,80.63
2022-11-28T21:10:58.599Z,80.67
2022-11-28T21:14:03.369Z,80.81
2022-11-28T21:17:08.013Z,80.35
2022-11-28T21:20:30.608Z,80.31
2022-11-28T21:23:45.736Z,80.27
2022-11-28T21:27:08.622Z,79.87
2022-11-28T21:30:15.946Z,80.51
2022-11-28T21:33:19.529Z,80.30
2022-11-28T21:36:34.318Z,80.06
2022-11-28T21:39:44.430Z,80.55
2022-11-28T21:43:07.547Z,80.15
2022-11-28T21:46:41.263Z,79.82
2022-11-28T21:50:02.217Z,79.60
2022-11-28T21:53:18.651Z,79.69
2022-11-28T21:56:28.013Z,79.25
2022-11-28T21:59:43.741Z,79.69
2022-11-28T22:03:14.469Z,79.53
2022-11-28T22:06:39.537Z,79.03
2022-11-28T22:10:14.468Z,80.07
2022-11-28T22:13:35.630Z,79.75
2022-11-28T22:16:50.256Z,79.71
2022-11-28T22:20:13.660Z,79.34
2022-11-28T22:23:47.307Z,79.69
2022-11-28T22:27:09.330Z,79.57
2022-11-28T22:30:12.608Z,79.77
2022-11-28T22:33:16.292Z,79.44
2022-11-28T22:36:27.924Z,79.85
2022-11-28T22:39:31.111Z,80.04
2022-11-28T22:42:41.041Z,80.85
2022-11-28T22:45:44.846Z,80.91
2022-11-28T22:48:48.561Z,81.14
2022-11-28T22:51:52.283Z,80.94
2022-11-28T22:55:15.559Z,81.25
2022-11-28T22:58:40.968Z,82.10
2022-11-28T23:01:54.038Z,82.02
2022-11-28T23:05:15.790Z,82.00
2022-11-28T23:08:29.112Z,82.44
2022-11-28T23:11:55.237Z,82.61
2022-11-28T23:15:14.039Z,82.74
2022-11-28T23:18:37.931Z,83.55
2022-11-28T23:21:44.601Z,83.46
2022-11-28T23:24:54.497Z,83.00
2022-11-28T23:28:07.576Z,83.19
2022-11-28T23:31:30.591Z,82.87
2022-11-28T23:34:47.892Z,83.52
2022-11-28T23:38:08.375Z,83.85
2022-11-28T23:41:19.299Z,83.20
2022-11-28T23:44:23.356Z,83.75
2022-11-28T23:47:26.416Z,84.60
2022-11-28T23:50:49.232Z,82.83
2022-11-28T23:54:16.469Z,84.33
2022-11-28T23:57:38.704Z,83.97
